Time;durP1;ratioP1;P1;durP2;ratioP2;P2;SDS_P1;SDS_P2;PMS_P1;PMS_P2;Temp;Humidity;BMP_temperature;BMP_pressure;BME280_temperature;BME280_humidity;BME280_pressure;Samples;Min_cycle;Max_cycle;Signal;HPM_P1;HPM_P2
2022/03/03 00:01:58;;;;;;;31.60;15.88;;;;;;;;;;5094333;28;20032;-67
2022/03/03 00:04:24;;;;;;;29.17;14.95;;;;;;;;;;5093658;28;20028;-67
2022/03/03 00:06:50;;;;;;;36.20;16.40;;;;;;;;;;5093802;28;20476;-67
2022/03/03 00:09:17;;;;;;;33.30;16.33;;;;;;;;;;5093736;28;20061;-68
2022/03/03 00:11:42;;;;;;;30.02;16.30;;;;;;;;;;5093756;28;20042;-68
2022/03/03 00:14:08;;;;;;;28.13;16.52;;;;;;;;;;5093612;28;20098;-68
2022/03/03 00:16:35;;;;;;;31.38;17.13;;;;;;;;;;5093564;28;20035;-68
2022/03/03 00:19:01;;;;;;;30.80;16.83;;;;;;;;;;5093427;28;20024;-67
2022/03/03 00:21:27;;;;;;;28.80;15.35;;;;;;;;;;5093712;28;20089;-67
2022/03/03 00:23:53;;;;;;;31.45;16.65;;;;;;;;;;5093129;28;20035;-67
2022/03/03 00:26:19;;;;;;;27.27;16.17;;;;;;;;;;5093440;28;20054;-66
2022/03/03 00:28:45;;;;;;;33.80;17.45;;;;;;;;;;5093406;28;20055;-68
2022/03/03 00:31:11;;;;;;;33.25;17.20;;;;;;;;;;5093132;28;20512;-67
2022/03/03 00:33:37;;;;;;;35.13;17.88;;;;;;;;;;5092761;28;20024;-67
2022/03/03 00:36:03;;;;;;;33.03;17.35;;;;;;;;;;5093257;28;20032;-68
2022/03/03 00:38:29;;;;;;;34.35;17.65;;;;;;;;;;5093175;28;20500;-68
2022/03/03 00:40:55;;;;;;;32.05;17.35;;;;;;;;;;5093167;28;20024;-67
2022/03/03 00:43:21;;;;;;;30.08;16.25;;;;;;;;;;5093145;28;20482;-68
2022/03/03 00:45:47;;;;;;;39.58;19.38;;;;;;;;;;5093640;28;20119;-68
2022/03/03 00:48:13;;;;;;;31.90;16.77;;;;;;;;;;5092889;28;20053;-68
2022/03/03 00:50:39;;;;;;;30.90;15.93;;;;;;;;;;5092941;28;20086;-67
2022/03/03 00:53:05;;;;;;;30.73;16.33;;;;;;;;;;5092677;28;20116;-67
2022/03/03 00:55:31;;;;;;;31.40;16.02;;;;;;;;;;5092843;28;20028;-68
2022/03/03 00:57:57;;;;;;;26.95;14.27;;;;;;;;;;5092850;28;20020;-68
2022/03/03 01:00:23;;;;;;;27.27;13.52;;;;;;;;;;5092560;28;20486;-69
2022/03/03 01:02:50;;;;;;;27.77;14.07;;;;;;;;;;5092271;28;20466;-67
2022/03/03 01:05:16;;;;;;;28.40;15.57;;;;;;;;;;5092672;28;20028;-67
2022/03/03 01:07:42;;;;;;;24.98;14.73;;;;;;;;;;5092477;28;20028;-67
2022/03/03 01:10:09;;;;;;;27.30;14.75;;;;;;;;;;5092748;28;20032;-67
2022/03/03 01:12:35;;;;;;;28.25;14.02;;;;;;;;;;5092566;28;20036;-67
2022/03/03 01:15:01;;;;;;;28.30;15.25;;;;;;;;;;5092247;28;20017;-67
2022/03/03 01:17:27;;;;;;;28.05;15.50;;;;;;;;;;5092587;28;20024;-67
2022/03/03 01:19:53;;;;;;;27.25;14.57;;;;;;;;;;5092620;28;20386;-68
2022/03/03 01:22:19;;;;;;;34.97;15.75;;;;;;;;;;5092367;28;20393;-68
2022/03/03 01:24:45;;;;;;;34.92;16.55;;;;;;;;;;5092213;28;20060;-67
2022/03/03 01:27:11;;;;;;;29.23;14.38;;;;;;;;;;5092372;28;20497;-67
2022/03/03 01:29:37;;;;;;;33.65;18.20;;;;;;;;;;5092287;28;20124;-67
2022/03/03 01:32:04;;;;;;;34.55;17.70;;;;;;;;;;5092065;28;20090;-68
2022/03/03 01:34:30;;;;;;;30.52;15.90;;;;;;;;;;5091890;28;20030;-69
2022/03/03 01:36:56;;;;;;;29.23;16.23;;;;;;;;;;5092230;28;20107;-67
2022/03/03 01:39:22;;;;;;;31.40;17.05;;;;;;;;;;5092228;28;20107;-68
2022/03/03 01:41:48;;;;;;;32.55;18.05;;;;;;;;;;5073927;28;20513;-68
2022/03/03 01:44:14;;;;;;;36.50;18.52;;;;;;;;;;5091896;28;20322;-68
2022/03/03 01:46:50;;;;;;;34.95;17.48;;;;;;;;;;5091763;28;20070;-67
2022/03/03 01:49:16;;;;;;;34.78;17.05;;;;;;;;;;5091863;28;20448;-67
2022/03/03 01:51:42;;;;;;;32.60;17.70;;;;;;;;;;5093694;28;20039;-66
2022/03/03 01:54:08;;;;;;;34.45;15.88;;;;;;;;;;5091696;28;20344;-67
2022/03/03 01:56:35;;;;;;;32.05;16.83;;;;;;;;;;5091214;28;20518;-67
2022/03/03 01:59:01;;;;;;;32.55;16.15;;;;;;;;;;5091635;28;20066;-67
2022/03/03 02:01:27;;;;;;;33.13;17.00;;;;;;;;;;5091828;28;20389;-67
2022/03/03 02:03:53;;;;;;;33.88;17.98;;;;;;;;;;5091608;28;20024;-67
2022/03/03 02:06:19;;;;;;;27.67;16.52;;;;;;;;;;5091734;28;20030;-67
2022/03/03 02:08:45;;;;;;;33.55;16.83;;;;;;;;;;5073660;28;20027;-67
2022/03/03 02:11:11;;;;;;;36.17;17.33;;;;;;;;;;5091787;28;20082;-68
2022/03/03 02:13:37;;;;;;;34.45;18.60;;;;;;;;;;5091414;28;20043;-67
2022/03/03 02:16:03;;;;;;;37.20;19.42;;;;;;;;;;5091419;28;20024;-68
2022/03/03 02:18:29;;;;;;;30.00;15.77;;;;;;;;;;5091852;28;20028;-67
2022/03/03 02:20:55;;;;;;;32.88;17.67;;;;;;;;;;5091663;28;20028;-67
2022/03/03 02:23:21;;;;;;;30.20;16.88;;;;;;;;;;5091561;28;20024;-68
2022/03/03 02:25:47;;;;;;;31.33;16.60;;;;;;;;;;5091622;28;20398;-68
2022/03/03 02:28:13;;;;;;;34.63;17.35;;;;;;;;;;5091775;28;20020;-70
2022/03/03 02:30:39;;;;;;;30.52;16.63;;;;;;;;;;5092011;28;20474;-68
2022/03/03 02:33:05;;;;;;;29.42;15.90;;;;;;;;;;5072983;28;20417;-67
2022/03/03 02:35:31;;;;;;;31.02;17.73;;;;;;;;;;5091955;28;20028;-68
2022/03/03 02:37:57;;;;;;;33.85;16.63;;;;;;;;;;5091600;28;20107;-68
2022/03/03 02:40:23;;;;;;;35.72;17.90;;;;;;;;;;5091542;28;20031;-68
2022/03/03 02:42:50;;;;;;;36.97;19.38;;;;;;;;;;5091395;28;20401;-67
2022/03/03 02:45:17;;;;;;;31.08;17.70;;;;;;;;;;5091438;28;20031;-68
2022/03/03 02:47:45;;;;;;;33.08;17.27;;;;;;;;;;5091786;28;20127;-68
2022/03/03 02:50:11;;;;;;;28.60;17.20;;;;;;;;;;5091986;28;20085;-68
2022/03/03 02:52:37;;;;;;;32.33;17.80;;;;;;;;;;5092209;28;20029;-67
2022/03/03 02:55:03;;;;;;;31.63;17.02;;;;;;;;;;5091864;28;20051;-68
2022/03/03 03:00:14;;;;;;;28.52;16.02;;;;;;;;;;5092682;28;20035;-68
2022/03/03 03:02:40;;;;;;;35.03;17.45;;;;;;;;;;5092240;28;20024;-69
2022/03/03 03:05:06;;;;;;;32.13;16.73;;;;;;;;;;5073818;28;20028;-69
2022/03/03 03:07:32;;;;;;;44.20;19.92;;;;;;;;;;5093011;28;20327;-68
2022/03/03 03:09:58;;;;;;;34.97;18.10;;;;;;;;;;5095821;28;20500;-68
2022/03/03 03:12:24;;;;;;;30.25;16.88;;;;;;;;;;5095131;28;20489;-68
2022/03/03 03:14:50;;;;;;;30.55;16.40;;;;;;;;;;5094758;28;20050;-68
2022/03/03 03:17:16;;;;;;;34.55;17.55;;;;;;;;;;5094950;28;20107;-68
2022/03/03 03:19:42;;;;;;;33.47;16.60;;;;;;;;;;5094804;28;20020;-68
2022/03/03 03:22:08;;;;;;;31.42;16.20;;;;;;;;;;5094779;28;20071;-70
2022/03/03 03:24:34;;;;;;;30.77;15.60;;;;;;;;;;5076599;28;20028;-67
2022/03/03 03:27:00;;;;;;;29.38;16.05;;;;;;;;;;5094652;28;20024;-67
2022/03/03 03:29:25;;;;;;;33.08;17.50;;;;;;;;;;5094603;28;20107;-67
2022/03/03 03:31:51;;;;;;;31.52;16.85;;;;;;;;;;5094510;28;20036;-67
2022/03/03 03:34:17;;;;;;;29.38;15.65;;;;;;;;;;5094114;28;20028;-68
2022/03/03 03:36:43;;;;;;;32.13;16.83;;;;;;;;;;5094273;28;20065;-68
2022/03/03 03:39:09;;;;;;;42.50;20.27;;;;;;;;;;5076079;28;20139;-68
2022/03/03 03:41:35;;;;;;;30.30;16.58;;;;;;;;;;5094498;28;20032;-70
2022/03/03 03:44:01;;;;;;;33.78;16.75;;;;;;;;;;5093980;28;20036;-68
2022/03/03 03:46:27;;;;;;;29.50;17.08;;;;;;;;;;5087426;22;20346;-71
2022/03/03 03:48:53;;;;;;;28.52;16.15;;;;;;;;;;5033659;28;20487;-70
2022/03/03 03:51:19;;;;;;;28.80;16.63;;;;;;;;;;5034129;28;20487;-70
2022/03/03 03:53:45;;;;;;;28.52;16.63;;;;;;;;;;5033677;28;20022;-71
2022/03/03 03:56:11;;;;;;;28.05;15.55;;;;;;;;;;5034149;28;20028;-70
2022/03/03 03:58:37;;;;;;;27.67;15.45;;;;;;;;;;5033734;28;20057;-71
2022/03/03 04:01:03;;;;;;;29.08;16.60;;;;;;;;;;5033642;28;20033;-71
2022/03/03 04:03:29;;;;;;;29.75;16.05;;;;;;;;;;5033519;28;20083;-72
2022/03/03 04:05:54;;;;;;;37.90;17.17;;;;;;;;;;5033465;28;20048;-71
2022/03/03 04:08:20;;;;;;;35.00;17.00;;;;;;;;;;5033572;28;20101;-71
2022/03/03 04:10:47;;;;;;;31.63;14.98;;;;;;;;;;5033583;28;20027;-72
2022/03/03 04:13:15;;;;;;;29.45;16.55;;;;;;;;;;5033286;28;20037;-71
2022/03/03 04:15:41;;;;;;;29.77;16.25;;;;;;;;;;5033327;28;20021;-71
2022/03/03 04:18:07;;;;;;;28.60;15.70;;;;;;;;;;5033795;28;20344;-71
2022/03/03 04:20:33;;;;;;;29.95;14.68;;;;;;;;;;5032916;28;20030;-71
2022/03/03 04:22:59;;;;;;;33.70;16.55;;;;;;;;;;5033506;28;20083;-70
2022/03/03 04:25:25;;;;;;;37.25;18.92;;;;;;;;;;5033463;28;20025;-71
2022/03/03 04:27:51;;;;;;;33.05;16.88;;;;;;;;;;5034206;28;20025;-71
2022/03/03 04:30:17;;;;;;;34.25;17.45;;;;;;;;;;5040854;28;20036;-73
2022/03/03 04:32:43;;;;;;;36.22;17.95;;;;;;;;;;5045377;28;20106;-72
2022/03/03 04:35:09;;;;;;;30.33;15.18;;;;;;;;;;5047074;28;20079;-71
2022/03/03 04:37:37;;;;;;;32.45;16.98;;;;;;;;;;5045264;28;20131;-70
2022/03/03 04:40:04;;;;;;;30.73;16.27;;;;;;;;;;5041799;28;20033;-71
2022/03/03 04:42:30;;;;;;;32.28;16.52;;;;;;;;;;5034195;28;20083;-72
2022/03/03 04:44:56;;;;;;;34.58;16.25;;;;;;;;;;5033764;28;20088;-70
2022/03/03 04:47:22;;;;;;;34.05;16.60;;;;;;;;;;5033944;28;20064;-70
2022/03/03 04:49:48;;;;;;;32.83;16.10;;;;;;;;;;5033096;28;20025;-71
2022/03/03 04:52:14;;;;;;;31.13;17.23;;;;;;;;;;5015127;28;20025;-70
2022/03/03 04:54:40;;;;;;;27.85;15.02;;;;;;;;;;5032837;28;20022;-72
2022/03/03 04:57:06;;;;;;;33.05;16.52;;;;;;;;;;5033988;28;20036;-71
2022/03/03 04:59:31;;;;;;;41.45;18.27;;;;;;;;;;5016576;28;20087;-72
2022/03/03 05:01:57;;;;;;;31.88;16.48;;;;;;;;;;5033395;28;20112;-72
2022/03/03 05:04:23;;;;;;;37.28;18.85;;;;;;;;;;5032502;28;20034;-71
2022/03/03 05:06:49;;;;;;;33.53;17.42;;;;;;;;;;5032735;28;20064;-70
2022/03/03 05:09:15;;;;;;;29.05;15.02;;;;;;;;;;5033095;28;20037;-71
2022/03/03 05:11:41;;;;;;;30.83;15.25;;;;;;;;;;5014918;28;20025;-71
2022/03/03 05:14:07;;;;;;;33.70;16.30;;;;;;;;;;5032699;28;20542;-71
2022/03/03 05:16:33;;;;;;;33.00;15.27;;;;;;;;;;5033005;28;20026;-70
2022/03/03 05:18:59;;;;;;;34.67;16.35;;;;;;;;;;5032743;28;20056;-71
2022/03/03 05:21:25;;;;;;;32.85;16.60;;;;;;;;;;5015508;28;20075;-71
2022/03/03 05:23:51;;;;;;;35.75;17.60;;;;;;;;;;5037607;28;20437;-71
2022/03/03 05:26:18;;;;;;;31.25;17.15;;;;;;;;;;5036962;28;20025;-71
2022/03/03 05:28:44;;;;;;;35.05;17.63;;;;;;;;;;5036342;28;20549;-70
2022/03/03 05:31:10;;;;;;;34.85;16.65;;;;;;;;;;5033776;28;20033;-69
2022/03/03 05:33:36;;;;;;;36.35;17.02;;;;;;;;;;5033927;28;20170;-72
2022/03/03 05:36:04;;;;;;;30.83;16.95;;;;;;;;;;5033974;28;20490;-72
2022/03/03 05:38:30;;;;;;;32.45;16.48;;;;;;;;;;5034615;28;20025;-71
2022/03/03 05:40:58;;;;;;;31.75;15.95;;;;;;;;;;5034430;28;20476;-72
2022/03/03 05:43:24;;;;;;;32.03;17.00;;;;;;;;;;5033985;28;20109;-71
2022/03/03 05:45:50;;;;;;;38.15;18.63;;;;;;;;;;5034454;28;20067;-70
2022/03/03 05:48:17;;;;;;;38.03;18.40;;;;;;;;;;5033099;28;20033;-71
2022/03/03 05:50:43;;;;;;;34.70;16.48;;;;;;;;;;5032801;28;20100;-70
2022/03/03 05:53:09;;;;;;;28.58;15.93;;;;;;;;;;5014395;28;20026;-71
2022/03/03 05:55:38;;;;;;;27.90;14.88;;;;;;;;;;5032643;28;20033;-72
2022/03/03 05:58:07;;;;;;;29.90;16.20;;;;;;;;;;5032353;28;20476;-70
2022/03/03 06:00:33;;;;;;;33.90;15.45;;;;;;;;;;5032088;28;20041;-70
2022/03/03 06:03:01;;;;;;;34.00;17.20;;;;;;;;;;5031929;28;20029;-72
2022/03/03 06:05:28;;;;;;;28.77;15.25;;;;;;;;;;5032291;28;20032;-73
2022/03/03 06:08:02;;;;;;;34.30;15.63;;;;;;;;;;5014745;28;20033;-71
2022/03/03 06:10:31;;;;;;;27.65;15.48;;;;;;;;;;5031958;28;20458;-72
2022/03/03 06:13:07;;;;;;;27.77;15.40;;;;;;;;;;5031560;28;20043;-71
2022/03/03 06:15:34;;;;;;;29.10;16.25;;;;;;;;;;5023327;28;20022;-73
2022/03/03 06:18:02;;;;;;;30.92;15.63;;;;;;;;;;5012053;28;20084;-73
2022/03/03 06:20:28;;;;;;;30.73;15.40;;;;;;;;;;5011806;28;20037;-73
2022/03/03 06:22:54;;;;;;;33.17;15.55;;;;;;;;;;5011565;28;20066;-72
2022/03/03 06:25:20;;;;;;;28.25;14.15;;;;;;;;;;5011548;28;20034;-72
2022/03/03 06:27:46;;;;;;;24.80;14.00;;;;;;;;;;4994658;28;20030;-71
2022/03/03 06:30:12;;;;;;;27.48;13.40;;;;;;;;;;5016326;28;20026;-71
2022/03/03 06:32:38;;;;;;;24.00;13.73;;;;;;;;;;5025082;28;20491;-72
2022/03/03 06:35:08;;;;;;;29.52;14.65;;;;;;;;;;5031161;28;20075;-73
2022/03/03 06:37:34;;;;;;;23.58;12.38;;;;;;;;;;5012160;28;20017;-71
2022/03/03 06:40:00;;;;;;;24.45;14.50;;;;;;;;;;5028516;28;20028;-72
2022/03/03 06:42:26;;;;;;;29.88;15.18;;;;;;;;;;5031885;28;20032;-71
2022/03/03 06:44:54;;;;;;;26.63;14.82;;;;;;;;;;5035677;28;20068;-72
2022/03/03 06:47:20;;;;;;;29.35;14.80;;;;;;;;;;5035792;28;20057;-71
2022/03/03 06:49:47;;;;;;;29.48;14.25;;;;;;;;;;5035557;28;20060;-71
2022/03/03 06:52:15;;;;;;;29.58;15.10;;;;;;;;;;5035875;28;20033;-72
2022/03/03 06:54:43;;;;;;;26.90;14.50;;;;;;;;;;5035510;28;20121;-72
2022/03/03 06:57:10;;;;;;;31.15;18.13;;;;;;;;;;5035851;28;20422;-72
2022/03/03 06:59:38;;;;;;;26.52;14.32;;;;;;;;;;5034923;28;20031;-71
2022/03/03 07:02:04;;;;;;;26.35;13.13;;;;;;;;;;5035204;28;20033;-71
2022/03/03 07:04:33;;;;;;;23.80;13.10;;;;;;;;;;5034716;28;20108;-72
2022/03/03 07:07:00;;;;;;;23.85;12.88;;;;;;;;;;5017287;28;20026;-71
2022/03/03 07:09:26;;;;;;;24.48;13.68;;;;;;;;;;5035225;28;20064;-72
2022/03/03 07:11:52;;;;;;;22.92;12.60;;;;;;;;;;5034810;28;20036;-72
2022/03/03 07:14:19;;;;;;;26.58;13.07;;;;;;;;;;5016633;28;20134;-71
2022/03/03 07:16:47;;;;;;;29.33;13.90;;;;;;;;;;5034928;28;20021;-70
2022/03/03 07:19:16;;;;;;;26.90;13.98;;;;;;;;;;5034891;28;20021;-72
2022/03/03 07:21:54;;;;;;;27.05;15.00;;;;;;;;;;5035177;28;20022;-70
2022/03/03 07:24:28;;;;;;;26.73;14.63;;;;;;;;;;5029918;28;20349;-73
2022/03/03 07:26:58;;;;;;;35.10;16.35;;;;;;;;;;5015109;28;20036;-72
2022/03/03 07:29:26;;;;;;;24.08;13.25;;;;;;;;;;5014872;28;20026;-74
2022/03/03 07:31:55;;;;;;;24.42;13.50;;;;;;;;;;4997578;28;20025;-74
2022/03/03 07:34:26;;;;;;;29.13;14.75;;;;;;;;;;5014504;28;20018;-71
2022/03/03 07:36:55;;;;;;;24.58;13.60;;;;;;;;;;5014800;28;20041;-73
2022/03/03 07:39:25;;;;;;;23.48;14.18;;;;;;;;;;5004990;28;20041;-72
2022/03/03 07:41:51;;;;;;;30.13;16.52;;;;;;;;;;5014334;28;20499;-73
2022/03/03 07:44:17;;;;;;;23.27;14.52;;;;;;;;;;5014206;28;20519;-74
2022/03/03 07:46:43;;;;;;;24.80;14.40;;;;;;;;;;5013660;28;20397;-74
2022/03/03 07:49:10;;;;;;;25.88;14.98;;;;;;;;;;5013752;28;20022;-74
2022/03/03 07:51:37;;;;;;;26.20;14.55;;;;;;;;;;5013517;28;20030;-74
2022/03/03 07:54:02;;;;;;;26.65;14.38;;;;;;;;;;5012892;28;20030;-73
2022/03/03 07:56:33;;;;;;;22.13;13.93;;;;;;;;;;5013121;28;20458;-73
2022/03/03 07:59:03;;;;;;;23.90;15.03;;;;;;;;;;5017746;28;20369;-75
2022/03/03 08:01:32;;;;;;;22.17;11.90;;;;;;;;;;5013209;28;20021;-71
2022/03/03 08:04:00;;;;;;;26.42;15.18;;;;;;;;;;5012711;28;20646;-70
2022/03/03 08:06:26;;;;;;;25.20;15.18;;;;;;;;;;5012815;28;20033;-72
2022/03/03 08:08:53;;;;;;;23.52;14.85;;;;;;;;;;5012847;28;20096;-72
2022/03/03 08:11:20;;;;;;;30.48;16.63;;;;;;;;;;5012808;28;20105;-72
2022/03/03 08:13:47;;;;;;;27.25;16.25;;;;;;;;;;5012653;28;20097;-71
2022/03/03 08:16:13;;;;;;;26.48;16.48;;;;;;;;;;5012731;28;20030;-72
2022/03/03 08:18:39;;;;;;;32.95;16.00;;;;;;;;;;5012772;28;20555;-70
2022/03/03 08:21:06;;;;;;;27.98;16.33;;;;;;;;;;5012600;28;20057;-71
2022/03/03 08:23:32;;;;;;;29.98;16.67;;;;;;;;;;5012547;28;20025;-72
2022/03/03 08:25:58;;;;;;;29.10;16.05;;;;;;;;;;5012661;28;20033;-70
2022/03/03 08:28:24;;;;;;;27.00;15.80;;;;;;;;;;5012545;28;20022;-70
2022/03/03 08:30:59;;;;;;;26.30;15.35;;;;;;;;;;5012628;28;20460;-70
2022/03/03 08:33:31;;;;;;;31.63;16.10;;;;;;;;;;5012232;28;20045;-72
2022/03/03 08:35:59;;;;;;;26.42;15.05;;;;;;;;;;5012101;28;20029;-70
2022/03/03 08:38:34;;;;;;;27.65;15.73;;;;;;;;;;5016376;28;20097;-69
2022/03/03 08:41:01;;;;;;;29.95;15.70;;;;;;;;;;5014516;28;20428;-70
2022/03/03 08:43:28;;;;;;;30.52;15.35;;;;;;;;;;5031832;28;20498;-70
2022/03/03 08:47:39;;;;;;;34.45;15.68;;;;;;;;;;5118149;27;1178407;-75
2022/03/03 08:50:11;;;;;;;30.17;15.98;;;;;;;;;;5131510;28;20047;-75
2022/03/03 08:52:41;;;;;;;26.30;14.68;;;;;;;;;;5130906;27;20094;-75
2022/03/03 08:55:11;;;;;;;32.60;16.13;;;;;;;;;;5130926;28;20059;-74
2022/03/03 08:57:38;;;;;;;24.20;14.27;;;;;;;;;;5130294;27;20015;-75
2022/03/03 09:00:06;;;;;;;28.83;16.20;;;;;;;;;;5132936;22;20048;-69
2022/03/03 09:02:32;;;;;;;29.77;15.85;;;;;;;;;;5088394;28;20479;-70
2022/03/03 09:04:58;;;;;;;27.83;15.52;;;;;;;;;;5087905;28;20039;-70
2022/03/03 09:07:24;;;;;;;30.63;16.40;;;;;;;;;;5088221;28;20021;-70
2022/03/03 09:09:49;;;;;;;31.48;15.82;;;;;;;;;;5088196;28;20545;-69
2022/03/03 09:12:18;;;;;;;32.92;16.35;;;;;;;;;;5088635;28;20056;-71
2022/03/03 09:14:44;;;;;;;33.53;15.32;;;;;;;;;;5088426;28;20053;-73
2022/03/03 09:17:10;;;;;;;26.48;15.02;;;;;;;;;;5076361;28;20422;-71
2022/03/03 09:19:37;;;;;;;30.02;15.80;;;;;;;;;;5068223;28;20394;-69
2022/03/03 09:22:03;;;;;;;32.63;16.02;;;;;;;;;;5068281;28;20032;-73
2022/03/03 09:24:29;;;;;;;26.23;15.65;;;;;;;;;;5068244;28;20035;-68
2022/03/03 09:26:55;;;;;;;29.38;16.95;;;;;;;;;;5068323;28;20025;-71
2022/03/03 09:29:22;;;;;;;33.20;16.98;;;;;;;;;;5068220;28;20071;-67
2022/03/03 09:31:48;;;;;;;30.70;16.40;;;;;;;;;;5068306;28;20021;-69
2022/03/03 09:34:14;;;;;;;29.48;17.05;;;;;;;;;;5067262;28;20017;-69
2022/03/03 09:36:40;;;;;;;33.40;17.50;;;;;;;;;;5066074;28;20047;-68
2022/03/03 09:39:06;;;;;;;34.15;18.83;;;;;;;;;;5066990;28;20031;-69
2022/03/03 09:41:32;;;;;;;34.13;17.92;;;;;;;;;;5066673;28;20037;-69
2022/03/03 09:43:58;;;;;;;28.63;17.75;;;;;;;;;;5067746;28;20024;-68
2022/03/03 09:46:25;;;;;;;53.90;27.38;;;;;;;;;;5067719;28;20043;-68
2022/03/03 09:48:53;;;;;;;41.67;21.77;;;;;;;;;;5067610;28;20107;-68
2022/03/03 09:51:19;;;;;;;47.90;24.10;;;;;;;;;;5067703;28;20455;-69
2022/03/03 09:53:49;;;;;;;47.15;23.02;;;;;;;;;;5067493;28;20021;-68
2022/03/03 09:56:16;;;;;;;59.17;29.10;;;;;;;;;;5067617;28;20035;-68
2022/03/03 09:58:42;;;;;;;61.75;30.00;;;;;;;;;;5056243;28;20086;-72
2022/03/03 10:01:08;;;;;;;35.40;18.13;;;;;;;;;;5053946;28;20041;-68
2022/03/03 10:03:37;;;;;;;41.45;17.55;;;;;;;;;;5053995;28;20029;-67
2022/03/03 10:06:04;;;;;;;30.35;18.80;;;;;;;;;;5054118;28;20017;-68
2022/03/03 10:08:30;;;;;;;35.58;19.77;;;;;;;;;;5054103;28;20104;-67
2022/03/03 10:10:58;;;;;;;31.33;17.83;;;;;;;;;;5053292;28;20033;-68
2022/03/03 10:13:24;;;;;;;36.45;19.98;;;;;;;;;;5062103;28;20031;-68
2022/03/03 10:15:54;;;;;;;43.53;21.50;;;;;;;;;;5053866;28;20029;-67
2022/03/03 10:18:21;;;;;;;41.65;21.05;;;;;;;;;;5035794;28;20437;-72
2022/03/03 10:20:49;;;;;;;44.05;23.75;;;;;;;;;;5053678;28;20035;-68
2022/03/03 10:23:16;;;;;;;49.78;25.77;;;;;;;;;;5053815;28;20035;-69
2022/03/03 10:25:44;;;;;;;39.47;19.80;;;;;;;;;;5053838;28;20033;-68
2022/03/03 10:28:11;;;;;;;34.95;17.33;;;;;;;;;;5053700;28;20103;-68
2022/03/03 10:30:47;;;;;;;43.08;20.40;;;;;;;;;;5053515;28;20021;-69
2022/03/03 10:33:18;;;;;;;35.75;16.38;;;;;;;;;;5053548;28;20021;-67
2022/03/03 10:35:58;;;;;;;31.97;16.70;;;;;;;;;;5053656;28;20052;-69
2022/03/03 10:38:24;;;;;;;25.98;14.65;;;;;;;;;;5035556;28;20025;-69
2022/03/03 10:40:50;;;;;;;38.50;19.25;;;;;;;;;;5053436;28;20395;-69
2022/03/03 10:43:16;;;;;;;36.70;18.38;;;;;;;;;;5053215;28;20029;-68
2022/03/03 10:45:56;;;;;;;35.00;16.30;;;;;;;;;;5053723;28;20090;-69
2022/03/03 10:48:22;;;;;;;23.40;13.20;;;;;;;;;;5035885;28;20025;-68
2022/03/03 10:50:49;;;;;;;23.30;13.20;;;;;;;;;;5053328;28;20112;-69
2022/03/03 10:53:18;;;;;;;32.15;16.23;;;;;;;;;;5053156;28;20477;-68
2022/03/03 10:56:04;;;;;;;24.08;13.25;;;;;;;;;;5053396;28;20060;-69
2022/03/03 10:59:10;;;;;;;24.48;14.23;;;;;;;;;;5053419;28;20036;-70
2022/03/03 11:01:36;;;;;;;29.05;15.27;;;;;;;;;;4971895;28;20169;-69
2022/03/03 11:04:02;;;;;;;28.63;15.55;;;;;;;;;;4971907;28;20519;-70
2022/03/03 11:06:29;;;;;;;27.60;15.10;;;;;;;;;;5011362;28;20033;-69
2022/03/03 11:08:56;;;;;;;30.90;16.25;;;;;;;;;;5052387;28;20025;-68
2022/03/03 11:11:24;;;;;;;25.50;14.65;;;;;;;;;;5034965;28;20071;-69
2022/03/03 11:13:50;;;;;;;35.67;17.67;;;;;;;;;;5052807;28;20193;-66
2022/03/03 11:16:20;;;;;;;34.60;18.77;;;;;;;;;;5052726;28;20116;-70
2022/03/03 11:18:47;;;;;;;29.25;15.50;;;;;;;;;;5052904;28;20489;-69
2022/03/03 11:21:14;;;;;;;26.50;15.32;;;;;;;;;;5052593;28;20036;-69
2022/03/03 11:23:41;;;;;;;35.95;16.48;;;;;;;;;;5052592;28;20043;-68
2022/03/03 11:26:09;;;;;;;33.75;17.15;;;;;;;;;;5052620;28;20116;-70
2022/03/03 11:28:35;;;;;;;25.95;15.07;;;;;;;;;;5052736;28;20037;-69
2022/03/03 11:31:21;;;;;;;35.10;16.35;;;;;;;;;;5052318;28;20025;-69
2022/03/03 11:33:47;;;;;;;24.48;14.38;;;;;;;;;;5052365;28;20021;-68
2022/03/03 11:36:20;;;;;;;30.60;16.05;;;;;;;;;;5052555;28;20371;-68
2022/03/03 11:38:51;;;;;;;41.90;20.48;;;;;;;;;;5034408;28;20066;-66
2022/03/03 11:41:19;;;;;;;41.20;21.73;;;;;;;;;;5052278;28;20025;-69
2022/03/03 11:43:47;;;;;;;33.25;15.88;;;;;;;;;;5052146;28;20487;-70
2022/03/03 11:46:14;;;;;;;35.03;17.40;;;;;;;;;;5034432;28;20036;-69
2022/03/03 11:48:40;;;;;;;24.85;14.75;;;;;;;;;;5052176;28;20025;-69
2022/03/03 11:51:32;;;;;;;29.92;16.42;;;;;;;;;;5051904;28;20409;-66
2022/03/03 11:54:06;;;;;;;28.05;14.85;;;;;;;;;;5051635;28;20025;-68
2022/03/03 11:56:35;;;;;;;47.92;22.02;;;;;;;;;;5051576;28;20115;-67
2022/03/03 11:59:11;;;;;;;25.75;16.23;;;;;;;;;;5051497;28;20129;-71
2022/03/03 12:01:54;;;;;;;30.58;16.05;;;;;;;;;;5051892;28;20029;-68
2022/03/03 12:04:25;;;;;;;27.80;16.20;;;;;;;;;;5051571;28;20048;-68
2022/03/03 12:06:51;;;;;;;34.17;17.67;;;;;;;;;;5051505;28;20025;-68
2022/03/03 12:09:17;;;;;;;33.00;16.67;;;;;;;;;;5051488;28;20087;-68
2022/03/03 12:11:43;;;;;;;28.90;15.20;;;;;;;;;;5033714;28;20024;-68
2022/03/03 12:14:29;;;;;;;44.03;21.77;;;;;;;;;;5051489;28;20025;-67
2022/03/03 12:16:55;;;;;;;25.70;15.68;;;;;;;;;;5051615;28;20036;-68
2022/03/03 12:19:35;;;;;;;26.15;15.60;;;;;;;;;;5051637;28;20503;-67
2022/03/03 12:22:01;;;;;;;41.67;21.13;;;;;;;;;;5051672;28;20036;-68
2022/03/03 12:24:33;;;;;;;33.20;16.20;;;;;;;;;;5051499;28;20040;-68
2022/03/03 12:27:05;;;;;;;29.35;16.27;;;;;;;;;;5051720;28;20025;-68
2022/03/03 12:29:52;;;;;;;23.50;14.32;;;;;;;;;;5051043;28;20029;-68
2022/03/03 12:32:28;;;;;;;25.80;14.65;;;;;;;;;;5052162;28;20033;-70
2022/03/03 12:34:54;;;;;;;30.10;15.63;;;;;;;;;;5051415;28;20024;-69
2022/03/03 12:37:20;;;;;;;24.48;13.75;;;;;;;;;;5051598;28;20399;-69
2022/03/03 12:39:55;;;;;;;32.90;16.70;;;;;;;;;;5057229;28;20054;-69
2022/03/03 12:42:25;;;;;;;27.48;15.73;;;;;;;;;;5051760;28;20029;-69
2022/03/03 12:44:58;;;;;;;23.93;14.23;;;;;;;;;;5051162;28;20033;-69
2022/03/03 12:47:36;;;;;;;25.85;14.60;;;;;;;;;;5051157;28;20310;-68
2022/03/03 12:50:10;;;;;;;27.50;14.93;;;;;;;;;;5051530;28;20047;-71
2022/03/03 12:52:37;;;;;;;29.42;15.60;;;;;;;;;;5051199;28;20028;-68
2022/03/03 12:55:04;;;;;;;27.17;15.85;;;;;;;;;;5051076;28;20036;-70
2022/03/03 12:57:31;;;;;;;26.85;14.95;;;;;;;;;;5051394;28;20033;-70
2022/03/03 12:59:58;;;;;;;29.40;15.10;;;;;;;;;;5050667;28;20033;-69
2022/03/03 13:02:24;;;;;;;32.15;16.40;;;;;;;;;;5051206;28;20040;-69
2022/03/03 13:04:50;;;;;;;25.80;15.55;;;;;;;;;;5033218;28;20024;-69
2022/03/03 13:07:17;;;;;;;32.72;17.52;;;;;;;;;;5051694;28;20029;-70
2022/03/03 13:09:57;;;;;;;32.95;17.65;;;;;;;;;;5051224;28;20017;-69
2022/03/03 13:12:24;;;;;;;32.83;17.60;;;;;;;;;;5051429;28;20438;-69
2022/03/03 13:15:00;;;;;;;24.25;13.48;;;;;;;;;;5051033;28;20100;-69
2022/03/03 13:17:27;;;;;;;25.75;14.52;;;;;;;;;;5050975;28;20451;-68
2022/03/03 13:19:54;;;;;;;42.33;21.30;;;;;;;;;;5051410;28;20037;-68
2022/03/03 13:22:20;;;;;;;30.13;17.75;;;;;;;;;;5051028;28;20033;-69
2022/03/03 13:24:46;;;;;;;32.58;16.98;;;;;;;;;;5050996;28;20025;-68
2022/03/03 13:27:12;;;;;;;32.88;16.60;;;;;;;;;;5051096;28;20100;-68
2022/03/03 13:29:39;;;;;;;32.85;17.60;;;;;;;;;;5050650;28;20043;-69
2022/03/03 13:32:12;;;;;;;37.20;18.13;;;;;;;;;;5050676;28;20025;-69
2022/03/03 13:34:39;;;;;;;28.80;16.38;;;;;;;;;;5054308;28;20387;-72
2022/03/03 13:37:13;;;;;;;25.73;14.25;;;;;;;;;;5054464;28;20033;-68
2022/03/03 13:39:39;;;;;;;30.73;14.88;;;;;;;;;;5054561;28;20029;-69
2022/03/03 13:42:08;;;;;;;32.88;17.27;;;;;;;;;;5054540;28;20035;-69
2022/03/03 13:44:34;;;;;;;35.70;19.65;;;;;;;;;;5054079;28;20021;-72
2022/03/03 13:47:02;;;;;;;27.08;16.08;;;;;;;;;;5054382;28;20471;-72
2022/03/03 13:49:29;;;;;;;30.85;16.38;;;;;;;;;;5054455;28;20024;-67
2022/03/03 13:52:05;;;;;;;26.95;15.45;;;;;;;;;;5054384;28;20021;-69
2022/03/03 13:54:44;;;;;;;25.13;15.35;;;;;;;;;;5054074;28;20052;-69
2022/03/03 13:57:29;;;;;;;29.38;15.43;;;;;;;;;;5054340;28;20695;-70
2022/03/03 13:59:56;;;;;;;32.75;17.95;;;;;;;;;;5053995;28;20033;-68
2022/03/03 14:02:22;;;;;;;34.55;17.88;;;;;;;;;;5036368;28;20025;-68
2022/03/03 14:05:21;;;;;;;30.13;16.55;;;;;;;;;;5054072;28;20182;-67
2022/03/03 14:07:51;;;;;;;37.33;19.85;;;;;;;;;;5010139;28;20106;-69
2022/03/03 14:10:17;;;;;;;33.55;17.65;;;;;;;;;;5054032;28;20040;-69
2022/03/03 14:13:02;;;;;;;28.48;15.68;;;;;;;;;;5053975;28;20529;-67
2022/03/03 14:15:28;;;;;;;27.48;16.70;;;;;;;;;;5053783;28;20017;-68
2022/03/03 14:17:54;;;;;;;32.35;18.40;;;;;;;;;;5053581;28;20032;-68
2022/03/03 14:20:20;;;;;;;26.55;16.00;;;;;;;;;;5053727;28;20403;-70
2022/03/03 14:22:58;;;;;;;30.52;17.63;;;;;;;;;;5054011;28;20021;-69
2022/03/03 14:25:25;;;;;;;26.65;15.23;;;;;;;;;;5053679;28;20025;-70